createdAt,value
2022-11-05T00:01:25.103Z,52.22
2022-11-05T00:04:14.986Z,52.39
2022-11-05T00:07:05.488Z,52.36
2022-11-05T00:09:38.805Z,52.43
2022-11-05T00:12:31.466Z,52.51
2022-11-05T00:15:21.382Z,52.68
2022-11-05T00:17:53.789Z,52.68
2022-11-05T00:20:26.211Z,52.88
2022-11-05T00:23:21.730Z,52.81
2022-11-05T00:26:02.017Z,52.88
2022-11-05T00:28:36.261Z,53.00
2022-11-05T00:31:10.975Z,52.97
2022-11-05T00:33:44.833Z,53.04
2022-11-05T00:36:17.027Z,53.13
2022-11-05T00:38:49.598Z,53.26
2022-11-05T00:41:21.950Z,53.33
2022-11-05T00:44:11.843Z,53.50
2022-11-05T00:46:44.102Z,53.53
2022-11-05T00:49:31.743Z,53.61
2022-11-05T00:52:17.774Z,53.59
2022-11-05T00:54:50.090Z,53.72
2022-11-05T00:57:22.362Z,53.59
2022-11-05T00:59:54.614Z,53.74
2022-11-05T01:02:27.099Z,53.73
2022-11-05T01:04:59.538Z,53.83
2022-11-05T01:07:31.911Z,53.86
2022-11-05T01:10:04.272Z,53.75
2022-11-05T01:12:37.321Z,54.00
2022-11-05T01:15:11.554Z,54.09
2022-11-05T01:17:43.805Z,54.09
2022-11-05T01:20:16.852Z,54.16
2022-11-05T01:22:49.463Z,54.21
2022-11-05T01:25:22.311Z,54.17
2022-11-05T01:27:54.709Z,54.25
2022-11-05T01:30:27.380Z,54.31
2022-11-05T01:33:00.400Z,54.39
2022-11-05T01:35:33.290Z,54.41
2022-11-05T01:38:05.656Z,54.53
2022-11-05T01:40:37.960Z,54.73
2022-11-05T01:43:15.793Z,54.70
2022-11-05T01:45:50.966Z,54.59
2022-11-05T01:48:26.665Z,54.77
2022-11-05T01:51:03.249Z,54.81
2022-11-05T01:53:40.995Z,55.00
2022-11-05T01:56:19.123Z,54.92
2022-11-05T01:58:57.032Z,54.99
2022-11-05T02:01:30.101Z,55.02
2022-11-05T02:04:05.742Z,55.01
2022-11-05T02:06:46.449Z,55.10
2022-11-05T02:09:23.810Z,55.25
2022-11-05T02:11:56.086Z,55.14
2022-11-05T02:14:29.353Z,55.32
2022-11-05T02:17:07.604Z,55.38
2022-11-05T02:20:10.813Z,55.39
2022-11-05T02:23:25.779Z,55.48
2022-11-05T02:26:19.726Z,55.67
2022-11-05T02:29:27.230Z,55.71
2022-11-05T02:32:06.778Z,55.68
2022-11-05T02:34:50.720Z,55.77
2022-11-05T02:37:32.724Z,55.84
2022-11-05T02:40:16.794Z,55.83
2022-11-05T02:42:59.085Z,56.04
2022-11-05T02:45:42.313Z,56.16
2022-11-05T02:48:23.046Z,56.36
2022-11-05T02:51:00.760Z,56.19
2022-11-05T02:53:40.225Z,56.29
2022-11-05T02:56:19.142Z,56.43
2022-11-05T02:58:51.394Z,56.41
2022-11-05T03:01:23.723Z,56.52
2022-11-05T03:04:00.364Z,56.56
2022-11-05T03:06:48.419Z,56.54
2022-11-05T03:09:48.487Z,56.74
2022-11-05T03:12:32.527Z,56.80
2022-11-05T03:15:17.326Z,56.98
2022-11-05T03:17:59.925Z,56.98
2022-11-05T03:20:37.319Z,57.06
2022-11-05T03:23:17.342Z,57.26
2022-11-05T03:25:54.862Z,57.24
2022-11-05T03:28:31.225Z,57.38
2022-11-05T03:31:06.157Z,57.40
2022-11-05T03:33:40.794Z,57.37
2022-11-05T03:36:18.766Z,57.54
2022-11-05T03:38:56.109Z,57.59
2022-11-05T03:41:30.188Z,57.75
2022-11-05T03:44:07.998Z,57.68
2022-11-05T03:46:44.471Z,57.77
2022-11-05T03:49:22.337Z,57.65
2022-11-05T03:52:00.324Z,57.79
2022-11-05T03:54:32.896Z,57.69
2022-11-05T03:57:10.090Z,57.80
2022-11-05T03:59:48.007Z,57.84
2022-11-05T04:02:23.692Z,57.92
2022-11-05T04:04:56.931Z,57.97
2022-11-05T04:07:46.807Z,58.05
2022-11-05T04:10:37.174Z,57.99
2022-11-05T04:13:25.298Z,58.03
2022-11-05T04:16:12.688Z,58.07
2022-11-05T04:18:45.409Z,57.99
2022-11-05T04:21:35.012Z,58.08
2022-11-05T04:24:10.764Z,58.18
2022-11-05T04:26:42.273Z,58.09
2022-11-05T04:29:32.166Z,58.30
2022-11-05T04:32:04.600Z,58.22
2022-11-05T04:34:36.878Z,58.23
2022-11-05T04:37:09.215Z,58.43
2022-11-05T04:39:41.465Z,58.42
2022-11-05T04:42:13.757Z,58.40
2022-11-05T04:44:46.167Z,58.55
2022-11-05T04:47:18.378Z,58.62
2022-11-05T04:49:50.972Z,58.70
2022-11-05T04:52:23.246Z,58.59
2022-11-05T04:54:55.798Z,58.61
2022-11-05T04:57:28.281Z,58.60
2022-11-05T05:00:00.688Z,58.68
2022-11-05T05:02:33.043Z,58.84
2022-11-05T05:05:06.517Z,58.87
2022-11-05T05:07:38.842Z,58.88
2022-11-05T05:10:12.573Z,58.99
2022-11-05T05:12:44.774Z,59.04
2022-11-05T05:15:17.057Z,59.05
2022-11-05T05:17:53.410Z,59.11
2022-11-05T05:20:43.352Z,59.17
2022-11-05T05:23:15.709Z,59.14
2022-11-05T05:25:47.961Z,59.21
2022-11-05T05:28:20.261Z,59.04
2022-11-05T05:30:57.600Z,59.23
2022-11-05T05:33:31.319Z,59.26
2022-11-05T05:36:08.407Z,59.32
2022-11-05T05:38:43.672Z,59.48
2022-11-05T05:41:16.313Z,59.53
2022-11-05T05:43:48.905Z,59.61
2022-11-05T05:46:21.706Z,59.70
2022-11-05T05:48:55.930Z,59.59
2022-11-05T05:51:28.277Z,59.82
2022-11-05T05:54:00.573Z,59.58
2022-11-05T05:56:33.721Z,59.60
2022-11-05T05:59:08.322Z,59.75
2022-11-05T06:01:41.003Z,59.96
2022-11-05T06:04:14.232Z,60.02
2022-11-05T06:06:48.410Z,59.99
2022-11-05T06:09:20.825Z,60.06
2022-11-05T06:11:53.084Z,60.00
2022-11-05T06:14:25.312Z,60.03
2022-11-05T06:16:57.859Z,60.23
2022-11-05T06:19:30.366Z,60.20
2022-11-05T06:22:02.540Z,60.33
2022-11-05T06:24:34.843Z,60.42
2022-11-05T06:27:07.114Z,60.42
2022-11-05T06:29:40.629Z,60.44
2022-11-05T06:32:13.020Z,60.51
2022-11-05T06:34:45.193Z,60.55
2022-11-05T06:37:17.555Z,60.75
2022-11-05T06:39:50.233Z,60.79
2022-11-05T06:42:22.921Z,60.71
2022-11-05T06:44:56.727Z,60.92
2022-11-05T06:47:29.401Z,60.99
2022-11-05T06:50:01.603Z,61.00
2022-11-05T06:52:38.340Z,60.97
2022-11-05T06:55:13.602Z,60.91
2022-11-05T06:57:45.909Z,61.15
2022-11-05T07:00:19.819Z,61.04
2022-11-05T07:02:52.619Z,61.02
2022-11-05T07:05:25.519Z,61.12
2022-11-05T07:07:57.769Z,61.24
2022-11-05T07:10:30.331Z,61.25
2022-11-05T07:13:07.591Z,61.29
2022-11-05T07:15:40.908Z,61.18
2022-11-05T07:18:13.517Z,61.28
2022-11-05T07:20:45.822Z,61.37
2022-11-05T07:23:18.747Z,61.36
2022-11-05T07:25:51.152Z,61.47
2022-11-05T07:28:23.535Z,61.55
2022-11-05T07:30:56.006Z,61.60
2022-11-05T07:33:32.306Z,61.50
2022-11-05T07:36:08.695Z,61.61
2022-11-05T07:38:40.937Z,61.58
2022-11-05T07:41:13.541Z,61.86
2022-11-05T07:43:45.836Z,61.84
2022-11-05T07:46:18.138Z,61.89
2022-11-05T07:48:50.327Z,61.93
2022-11-05T07:51:22.542Z,62.09
2022-11-05T07:53:54.812Z,61.97
2022-11-05T07:56:27.155Z,62.06
2022-11-05T07:58:59.353Z,62.12
2022-11-05T08:01:32.275Z,62.03
2022-11-05T08:04:04.808Z,62.19
2022-11-05T08:06:37.084Z,62.09
2022-11-05T08:09:09.416Z,62.07
2022-11-05T08:11:42.035Z,62.03
2022-11-05T08:14:14.714Z,61.97
2022-11-05T08:16:46.992Z,62.16
2022-11-05T08:19:19.722Z,62.06
2022-11-05T08:21:52.094Z,62.09
2022-11-05T08:24:24.337Z,62.00
2022-11-05T08:26:57.103Z,62.18
2022-11-05T08:29:29.847Z,62.18
2022-11-05T08:32:02.042Z,62.11
2022-11-05T08:34:34.639Z,62.02
2022-11-05T08:37:07.195Z,62.08
2022-11-05T08:39:39.979Z,62.09
2022-11-05T08:42:12.705Z,61.98
2022-11-05T08:44:45.035Z,61.83
2022-11-05T08:47:17.298Z,61.57
2022-11-05T08:49:49.718Z,61.48
2022-11-05T08:52:21.987Z,61.29
2022-11-05T08:54:54.233Z,61.17
2022-11-05T08:57:27.453Z,61.04
2022-11-05T09:00:00.052Z,61.08
2022-11-05T09:02:32.273Z,60.96
2022-11-05T09:05:04.816Z,60.84
2022-11-05T09:07:37.280Z,60.79
2022-11-05T09:10:11.214Z,60.74
2022-11-05T09:12:43.416Z,60.45
2022-11-05T09:15:15.708Z,60.50
2022-11-05T09:17:47.895Z,60.53
2022-11-05T09:20:20.594Z,60.13
2022-11-05T09:22:53.003Z,60.07
2022-11-05T09:25:25.575Z,60.27
2022-11-05T09:28:16.244Z,60.06
2022-11-05T09:30:51.593Z,59.89
2022-11-05T09:33:26.632Z,59.90
2022-11-05T09:36:02.618Z,59.87
2022-11-05T09:38:36.110Z,59.77
2022-11-05T09:41:14.527Z,59.52
2022-11-05T09:43:51.726Z,59.24
2022-11-05T09:46:26.331Z,59.11
2022-11-05T09:49:04.325Z,58.82
2022-11-05T09:51:37.289Z,58.83
2022-11-05T09:54:11.842Z,58.51
2022-11-05T09:56:44.947Z,58.49
2022-11-05T09:59:23.074Z,58.24
2022-11-05T10:02:05.759Z,57.95
2022-11-05T10:04:39.125Z,57.88
2022-11-05T10:07:17.306Z,58.01
2022-11-05T10:09:52.711Z,57.78
2022-11-05T10:12:25.709Z,57.89
2022-11-05T10:15:07.174Z,57.62
2022-11-05T10:17:43.863Z,57.34
2022-11-05T10:20:27.783Z,57.06
2022-11-05T10:23:03.141Z,57.11
2022-11-05T10:25:40.426Z,57.01
2022-11-05T10:28:18.258Z,56.88
2022-11-05T10:30:55.280Z,56.77
2022-11-05T10:33:35.027Z,56.72
2022-11-05T10:36:11.561Z,56.65
2022-11-05T10:38:44.249Z,56.64
2022-11-05T10:41:37.708Z,56.59
2022-11-05T10:44:24.275Z,56.63
2022-11-05T10:47:10.274Z,56.51
2022-11-05T10:49:54.189Z,56.50
2022-11-05T10:52:29.582Z,56.23
2022-11-05T10:55:05.900Z,56.08
2022-11-05T10:57:40.327Z,55.95
2022-11-05T11:00:31.528Z,56.04
2022-11-05T11:03:05.857Z,55.88
2022-11-05T11:05:40.827Z,55.66
2022-11-05T11:08:26.368Z,55.69
2022-11-05T11:11:03.279Z,55.59
2022-11-05T11:13:59.870Z,55.31
2022-11-05T11:16:37.003Z,55.14
2022-11-05T11:19:26.781Z,55.24
2022-11-05T11:22:28.592Z,55.21
2022-11-05T11:25:01.447Z,55.25
2022-11-05T11:27:37.502Z,54.99
2022-11-05T11:30:20.463Z,55.19
2022-11-05T11:32:53.206Z,55.05
2022-11-05T11:35:27.479Z,54.97
2022-11-05T11:38:02.374Z,55.08
2022-11-05T11:40:37.883Z,55.18
2022-11-05T11:43:21.390Z,55.18
2022-11-05T11:46:00.702Z,55.09
2022-11-05T11:48:37.934Z,55.18
2022-11-05T11:51:30.446Z,55.16
2022-11-05T11:54:03.974Z,55.18
2022-11-05T11:56:46.343Z,55.13
2022-11-05T11:59:46.896Z,55.17
2022-11-05T12:02:43.428Z,54.93
2022-11-05T12:05:24.934Z,55.00
2022-11-05T12:08:02.722Z,54.98
2022-11-05T12:10:55.552Z,54.90
2022-11-05T12:13:59.558Z,54.82
2022-11-05T12:16:55.320Z,54.73
2022-11-05T12:19:45.938Z,54.65
2022-11-05T12:22:28.742Z,54.72
2022-11-05T12:25:22.724Z,54.63
2022-11-05T12:28:16.778Z,54.49
2022-11-05T12:30:57.586Z,54.46
2022-11-05T12:33:39.558Z,54.26
2022-11-05T12:36:22.766Z,54.36
2022-11-05T12:39:26.695Z,54.35
2022-11-05T12:42:08.096Z,54.10
2022-11-05T12:45:02.266Z,54.22
2022-11-05T12:47:59.580Z,54.22
2022-11-05T12:50:38.531Z,54.07
2022-11-05T12:53:35.911Z,54.13
2022-11-05T12:56:14.853Z,54.03
2022-11-05T12:58:51.896Z,54.20
2022-11-05T13:01:33.416Z,54.09
2022-11-05T13:04:12.528Z,54.13
2022-11-05T13:06:50.323Z,54.21
2022-11-05T13:09:27.499Z,53.91
2022-11-05T13:12:05.310Z,54.21
2022-11-05T13:14:45.454Z,54.07
2022-11-05T13:17:20.893Z,54.17
2022-11-05T13:19:58.699Z,54.14
2022-11-05T13:22:40.501Z,54.14
2022-11-05T13:25:18.897Z,54.57
2022-11-05T13:28:00.533Z,54.43
2022-11-05T13:30:37.825Z,54.33
2022-11-05T13:33:22.578Z,54.45
2022-11-05T13:36:14.221Z,54.38
2022-11-05T13:39:07.208Z,54.25
2022-11-05T13:41:54.784Z,54.22
2022-11-05T13:44:59.636Z,54.33
2022-11-05T13:47:49.210Z,54.42
2022-11-05T13:50:55.638Z,54.33
2022-11-05T13:53:58.245Z,54.52
2022-11-05T13:56:41.871Z,54.54
2022-11-05T13:59:45.175Z,54.49
2022-11-05T14:02:20.157Z,54.52
2022-11-05T14:05:00.728Z,54.78
2022-11-05T14:07:36.625Z,54.48
2022-11-05T14:10:22.826Z,54.49
2022-11-05T14:12:56.966Z,54.47
2022-11-05T14:15:32.491Z,54.67
2022-11-05T14:18:07.418Z,54.61
2022-11-05T14:21:00.442Z,54.93
2022-11-05T14:23:54.270Z,54.80
2022-11-05T14:26:28.750Z,54.88
2022-11-05T14:29:37.475Z,54.87
2022-11-05T14:32:28.404Z,54.81
2022-11-05T14:35:05.303Z,55.05
2022-11-05T14:37:41.282Z,55.03
2022-11-05T14:40:37.513Z,55.00
2022-11-05T14:43:21.514Z,55.25
2022-11-05T14:46:01.292Z,55.22
2022-11-05T14:48:42.193Z,55.38
2022-11-05T14:51:29.898Z,55.52
2022-11-05T14:54:04.900Z,55.39
2022-11-05T14:56:51.811Z,55.94
2022-11-05T15:02:40.061Z,55.98
2022-11-05T15:05:38.866Z,56.01
2022-11-05T15:08:32.510Z,56.25
2022-11-05T15:11:14.505Z,56.04
2022-11-05T15:13:58.082Z,56.18
2022-11-05T15:16:35.359Z,56.34
2022-11-05T15:19:13.527Z,56.62
2022-11-05T15:21:47.947Z,56.55
2022-11-05T15:24:21.965Z,56.48
2022-11-05T15:27:02.337Z,56.65
2022-11-05T15:29:34.974Z,56.70
2022-11-05T15:32:15.770Z,56.66
2022-11-05T15:34:55.764Z,56.72
2022-11-05T15:37:28.944Z,56.87
2022-11-05T15:40:01.330Z,56.89
2022-11-05T15:42:33.658Z,57.08
2022-11-05T15:45:20.182Z,56.98
2022-11-05T15:47:52.464Z,57.11
2022-11-05T15:50:24.743Z,57.29
2022-11-05T15:53:09.498Z,57.13
2022-11-05T15:55:58.234Z,57.49
2022-11-05T15:58:30.594Z,57.49
2022-11-05T16:01:02.886Z,57.75
2022-11-05T16:03:39.960Z,57.61
2022-11-05T16:06:12.763Z,57.74
2022-11-05T16:08:50.122Z,57.66
2022-11-05T16:11:27.614Z,58.13
2022-11-05T16:14:17.445Z,58.18
2022-11-05T16:16:49.817Z,58.09
2022-11-05T16:19:45.734Z,58.14
2022-11-05T16:22:18.485Z,58.29
2022-11-05T16:24:51.260Z,58.26
2022-11-05T16:27:25.006Z,58.38
2022-11-05T16:29:58.501Z,58.39
2022-11-05T16:32:32.281Z,58.50
2022-11-05T16:35:07.022Z,58.58
2022-11-05T16:37:46.370Z,58.58
2022-11-05T16:40:24.645Z,58.63
2022-11-05T16:43:01.438Z,58.77
2022-11-05T16:45:41.213Z,58.75
2022-11-05T16:48:15.525Z,58.94
2022-11-05T16:50:48.727Z,58.96
2022-11-05T16:53:20.994Z,59.12
2022-11-05T16:55:53.367Z,59.09
2022-11-05T16:58:27.788Z,59.15
2022-11-05T17:01:05.187Z,59.23
2022-11-05T17:03:37.930Z,59.33
2022-11-05T17:06:11.050Z,59.57
2022-11-05T17:08:44.464Z,59.45
2022-11-05T17:11:19.178Z,59.54
2022-11-05T17:13:52.049Z,59.80
2022-11-05T17:16:26.475Z,59.80
2022-11-05T17:18:59.435Z,59.78
2022-11-05T17:21:31.695Z,59.87
2022-11-05T17:24:03.989Z,59.93
2022-11-05T17:26:36.561Z,60.21
2022-11-05T17:29:09.274Z,60.25
2022-11-05T17:31:43.531Z,60.24
2022-11-05T17:34:15.722Z,60.26
2022-11-05T17:36:47.966Z,60.39
2022-11-05T17:39:20.231Z,60.59
2022-11-05T17:41:53.172Z,60.50
2022-11-05T17:44:25.429Z,60.72
2022-11-05T17:46:58.022Z,60.62
2022-11-05T17:49:30.331Z,60.84
2022-11-05T17:52:02.608Z,60.91
2022-11-05T17:54:35.231Z,60.94
2022-11-05T17:57:07.760Z,61.00
2022-11-05T17:59:40.010Z,61.09
2022-11-05T18:02:14.146Z,61.28
2022-11-05T18:04:46.514Z,61.35
2022-11-05T18:07:19.190Z,61.53
2022-11-05T18:09:51.893Z,61.53
2022-11-05T18:12:24.110Z,61.59
2022-11-05T18:14:56.407Z,61.60
2022-11-05T18:17:29.224Z,61.76
2022-11-05T18:20:01.439Z,61.89
2022-11-05T18:22:33.666Z,61.86
2022-11-05T18:25:07.382Z,61.91
2022-11-05T18:27:40.686Z,62.08
2022-11-05T18:30:16.079Z,62.07
2022-11-05T18:32:48.396Z,62.19
2022-11-05T18:35:21.142Z,62.25
2022-11-05T18:37:53.709Z,62.30
2022-11-05T18:40:26.269Z,62.47
2022-11-05T18:42:58.547Z,62.48
2022-11-05T18:45:32.209Z,62.47
2022-11-05T18:48:06.153Z,62.64
2022-11-05T18:50:40.104Z,62.62
2022-11-05T18:53:12.648Z,62.61
2022-11-05T18:55:45.078Z,62.66
2022-11-05T18:58:17.782Z,62.73
2022-11-05T19:00:50.133Z,62.75
2022-11-05T19:03:22.490Z,62.87
2022-11-05T19:05:55.635Z,62.90
2022-11-05T19:08:28.243Z,62.89
2022-11-05T19:11:01.315Z,62.96
2022-11-05T19:13:33.487Z,63.03
2022-11-05T19:16:09.387Z,63.15
2022-11-05T19:18:41.694Z,63.11
2022-11-05T19:21:16.250Z,63.15
2022-11-05T19:23:48.517Z,63.39
2022-11-05T19:26:28.129Z,63.24
2022-11-05T19:29:02.596Z,63.33
2022-11-05T19:31:34.875Z,63.34
2022-11-05T19:34:07.488Z,63.42
2022-11-05T19:36:40.174Z,63.47
2022-11-05T19:39:15.421Z,63.42
2022-11-05T19:41:48.607Z,63.61
2022-11-05T19:44:21.043Z,63.58
2022-11-05T19:46:53.399Z,63.63
2022-11-05T19:49:28.239Z,63.58
2022-11-05T19:52:01.268Z,63.76
2022-11-05T19:54:35.643Z,63.78
2022-11-05T19:57:08.057Z,63.93
2022-11-05T19:59:40.578Z,63.83
2022-11-05T20:02:16.494Z,63.82
2022-11-05T20:04:50.870Z,63.90
2022-11-05T20:07:23.292Z,63.89
2022-11-05T20:09:55.522Z,63.97
2022-11-05T20:12:27.868Z,64.00
2022-11-05T20:15:00.138Z,63.99
2022-11-05T20:17:32.480Z,64.13
2022-11-05T20:20:05.508Z,64.05
2022-11-05T20:22:38.497Z,64.20
2022-11-05T20:25:12.496Z,64.26
2022-11-05T20:27:45.184Z,64.29
2022-11-05T20:30:18.686Z,64.28
2022-11-05T20:32:54.111Z,64.26
2022-11-05T20:35:27.011Z,64.30
2022-11-05T20:37:59.582Z,64.35
2022-11-05T20:40:31.862Z,64.55
2022-11-05T20:43:04.392Z,64.48
2022-11-05T20:45:38.482Z,64.47
2022-11-05T20:48:11.039Z,64.51
2022-11-05T20:50:45.604Z,64.52
2022-11-05T20:53:18.194Z,64.61
2022-11-05T20:55:50.913Z,64.61
2022-11-05T20:58:23.493Z,64.72
2022-11-05T21:00:57.528Z,64.79
2022-11-05T21:03:29.860Z,64.69
2022-11-05T21:06:04.713Z,64.82
2022-11-05T21:08:37.473Z,64.83
2022-11-05T21:11:10.773Z,64.78
2022-11-05T21:13:43.504Z,64.84
2022-11-05T21:16:19.065Z,64.94
2022-11-05T21:18:50.177Z,64.86
2022-11-05T21:21:23.161Z,64.97
2022-11-05T21:23:55.347Z,64.95
2022-11-05T21:26:28.291Z,65.00
2022-11-05T21:29:00.606Z,65.07
2022-11-05T21:31:32.880Z,65.14
2022-11-05T21:34:05.682Z,64.99
2022-11-05T21:36:38.013Z,65.17
2022-11-05T21:39:13.462Z,65.20
2022-11-05T21:41:46.301Z,65.15
2022-11-05T21:44:18.839Z,65.14
2022-11-05T21:46:52.536Z,65.24
2022-11-05T21:49:25.082Z,65.22
2022-11-05T21:52:15.032Z,65.32
2022-11-05T21:55:04.977Z,65.30
2022-11-05T21:57:55.096Z,65.25
2022-11-05T22:00:27.866Z,65.34
2022-11-05T22:03:01.903Z,65.31
2022-11-05T22:05:34.491Z,65.52
2022-11-05T22:08:07.061Z,65.39
2022-11-05T22:10:39.461Z,65.43
2022-11-05T22:13:11.711Z,65.53
2022-11-05T22:15:44.243Z,65.57
2022-11-05T22:18:16.506Z,65.56
2022-11-05T22:20:48.817Z,65.56
2022-11-05T22:23:21.067Z,65.61
2022-11-05T22:25:59.403Z,65.53
2022-11-05T22:28:31.608Z,65.66
2022-11-05T22:31:04.071Z,65.67
2022-11-05T22:33:36.263Z,65.69
2022-11-05T22:36:10.195Z,65.72
2022-11-05T22:38:43.034Z,65.78
2022-11-05T22:41:17.591Z,65.83
2022-11-05T22:43:50.282Z,65.88
2022-11-05T22:46:24.721Z,65.86
2022-11-05T22:48:58.366Z,65.92
2022-11-05T22:51:32.839Z,65.95
2022-11-05T22:54:06.710Z,65.97
2022-11-05T22:56:41.841Z,65.99
2022-11-05T22:59:16.694Z,66.02
2022-11-05T23:01:49.544Z,66.08
2022-11-05T23:04:22.255Z,66.11
2022-11-05T23:07:12.745Z,66.06
2022-11-05T23:10:02.484Z,66.13
2022-11-05T23:12:38.085Z,66.23
2022-11-05T23:15:32.473Z,66.18
2022-11-05T23:18:22.370Z,66.20
2022-11-05T23:21:12.756Z,66.17
2022-11-05T23:24:02.431Z,66.24
2022-11-05T23:26:54.136Z,66.28
2022-11-05T23:29:28.191Z,66.32
2022-11-05T23:32:18.305Z,66.27
2022-11-05T23:34:50.704Z,66.33
2022-11-05T23:37:41.872Z,66.32
2022-11-05T23:40:17.513Z,66.27
2022-11-05T23:43:07.692Z,66.39
2022-11-05T23:46:00.171Z,66.38
2022-11-05T23:48:34.766Z,66.36
2022-11-05T23:51:10.071Z,66.44
2022-11-05T23:53:43.603Z,66.50
2022-11-05T23:56:16.989Z,66.53
2022-11-05T23:58:49.688Z,66.58
